• Join FlightAware (Why Join?)
  • Login
  • US Flag 
11:01AM EDT


 

Airport Tracker/Info


-or-


 

Live Flight TrackerFlight Track Log ✈ USC105 ✈ 01-07-2013 ✈ KLCK - KBKL

Flight Track Log - Related Links

Times and Time Zones

All times are in EDT time to prevent confusion due to time zone crossing. See the USC105 flight status page for this flight to view local times or setup timezone preferences in your user account.

Time Position Orientation Groundspeed Altitude Reporting Facility
EDT Latitude Longitude Course Direction KTS MPH feet Rate Location/Type
09:52PM 39.8203 -82.9217 42° Northeast 113 130 1,000  Level Indianapolis Center
09:53PM 39.8511 -82.8858 42° Northeast 102 117 2,500 900 Climbing Indianapolis Center
09:54PM 39.8639 -82.8714 41° Northeast 104 120 3,000 900 Climbing Indianapolis Center
09:55PM 39.8858 -82.8447 43° Northeast 105 121 4,100 1,020 Climbing Indianapolis Center
09:56PM 39.9083 -82.8164 44° Northeast 110 127 5,100 900 Climbing Indianapolis Center
09:57PM 39.9319 -82.7861 45° Northeast 116 133 6,000 900 Climbing Indianapolis Center
09:58PM 39.9575 -82.7547 43° Northeast 124 143 7,000 540 Climbing Indianapolis Center
09:59PM 39.9922 -82.7108 44° Northeast 152 175 7,100  Climbing Indianapolis Center
10:00PM 40.0311 -82.6806 31° Northeast 164 189 7,100  Level Indianapolis Center
10:01PM 40.0750 -82.6506 28° Northeast 176 203 7,100  Level Indianapolis Center
10:02PM 40.1222 -82.6192 27° Northeast 187 215 7,100  Level Indianapolis Center
10:03PM 40.1689 -82.5892 26° Northeast 187 215 7,100  Level Indianapolis Center
10:04PM 40.2142 -82.5583 27° Northeast 183 211 7,100  Level Indianapolis Center
10:05PM 40.2733 -82.5203 26° Northeast 189 217 7,100  Level Indianapolis Center
10:06PM 40.3078 -82.4969 27° Northeast 193 222 7,100  Level Indianapolis Center
10:07PM 40.3561 -82.4683 24° Northeast 191 220 7,100  Level Indianapolis Center
10:08PM 40.4022 -82.4339 30° Northeast 190 219 7,100 -120 Level Indianapolis Center
10:09PM 40.4497 -82.4019 27° Northeast 191 220 6,900 -60 Descending Indianapolis Center
10:10PM 40.4969 -82.3700 27° Northeast 190 219 7,000  Climbing Indianapolis Center
10:11PM 40.5447 -82.3383 27° Northeast 189 217 7,000 -60 Level Indianapolis Center
10:12PM 40.5931 -82.3061 27° Northeast 193 222 6,900  Descending Indianapolis Center
10:13PM 40.6408 -82.2747 26° Northeast 190 219 7,000  Climbing Indianapolis Center
10:14PM 40.6881 -82.2422 28° Northeast 190 219 7,000  Level Indianapolis Center
10:15PM 40.7361 -82.2103 27° Northeast 191 220 7,000  Level Indianapolis Center
10:16PM 40.7833 -82.1775 28° Northeast 191 220 7,100  Climbing Indianapolis Center
10:17PM 40.8314 -82.1450 27° Northeast 191 220 7,000 -60 Descending Indianapolis Center
10:18PM 40.8800 -82.1131 26° Northeast 194 223 7,000  Level Indianapolis Center
10:19PM 40.9342 -82.0756 28° Northeast 187 215 7,100  Climbing Indianapolis Center
10:20PM 40.9797 -82.0411 30° Northeast 187 215 7,100  Level Indianapolis Center